Hall, New York
Current Conditions -  °F | °C
As of 5:53 AM on Saturday 25 Oct 2014 (Local Time) from KPEO Reporting Station
Overcast Overcast  
Wind Chill: 50°   Ceiling: 5500
Heat Index: 50°   Visibility: 8mi
Dew Point: 44°   Wind: 7mph
Humidity: 80%   Direction: 190°S
Pressure: 29.87"   Gusts: NA
Location:  42.79°N, 77.07°W
Report Text: KPEO 250953Z AUTO 19006KT 8SM OVC055 10/07 A2987 RMK AO2 SLP116 T01000067
Loading
Personal Weather Stations






























Interactive Weather Map
Tropical Storm Tracking
New forecast layout! Learn more

10-Day Weather Forecast

Advertisements
Track Severe Weather on mobile